sensor_id;sensor_type;location;lat;lon;timestamp;pressure;altitude;pressure_sealevel;temperature;humidity
58979;BME280;44763;50.464;30.612;2024-02-04T00:01:40;98902.27;;;7.32;100.00
58979;BME280;44763;50.464;30.612;2024-02-04T00:03:42;98895.15;;;7.24;100.00
58979;BME280;44763;50.464;30.612;2024-02-04T00:05:44;98911.36;;;7.23;100.00
58979;BME280;44763;50.464;30.612;2024-02-04T00:07:46;98913.36;;;7.24;100.00
58979;BME280;44763;50.464;30.612;2024-02-04T00:09:48;98916.39;;;7.25;100.00
58979;BME280;44763;50.464;30.612;2024-02-04T00:11:49;98917.02;;;7.27;100.00
58979;BME280;44763;50.464;30.612;2024-02-04T00:13:51;98918.77;;;7.32;100.00
58979;BME280;44763;50.464;30.612;2024-02-04T00:15:53;98917.26;;;7.32;100.00
58979;BME280;44763;50.464;30.612;2024-02-04T00:17:56;98915.66;;;7.31;100.00
58979;BME280;44763;50.464;30.612;2024-02-04T00:19:59;98915.90;;;7.28;100.00
58979;BME280;44763;50.464;30.612;2024-02-04T00:22:01;98917.16;;;7.22;100.00
58979;BME280;44763;50.464;30.612;2024-02-04T00:24:04;98917.91;;;7.17;100.00
58979;BME280;44763;50.464;30.612;2024-02-04T00:26:06;98917.44;;;7.16;100.00
58979;BME280;44763;50.464;30.612;2024-02-04T00:28:08;98916.21;;;7.17;100.00
58979;BME280;44763;50.464;30.612;2024-02-04T00:30:14;98916.21;;;7.18;100.00
58979;BME280;44763;50.464;30.612;2024-02-04T00:32:15;98902.52;;;7.20;100.00
58979;BME280;44763;50.464;30.612;2024-02-04T00:34:17;98915.09;;;7.22;100.00
58979;BME280;44763;50.464;30.612;2024-02-04T00:36:19;98911.61;;;7.21;100.00
58979;BME280;44763;50.464;30.612;2024-02-04T00:38:23;98918.66;;;7.19;100.00
58979;BME280;44763;50.464;30.612;2024-02-04T00:40:25;98932.39;;;7.14;100.00
58979;BME280;44763;50.464;30.612;2024-02-04T00:42:28;98917.95;;;7.11;100.00
58979;BME280;44763;50.464;30.612;2024-02-04T00:44:30;98908.77;;;7.08;100.00
58979;BME280;44763;50.464;30.612;2024-02-04T00:46:32;98914.45;;;7.07;100.00
58979;BME280;44763;50.464;30.612;2024-02-04T00:48:33;98913.05;;;7.08;100.00
58979;BME280;44763;50.464;30.612;2024-02-04T00:50:36;98918.88;;;7.06;100.00
58979;BME280;44763;50.464;30.612;2024-02-04T00:52:38;98915.13;;;7.05;100.00
58979;BME280;44763;50.464;30.612;2024-02-04T00:54:40;98918.09;;;7.04;100.00
58979;BME280;44763;50.464;30.612;2024-02-04T00:56:42;98923.52;;;7.03;100.00
58979;BME280;44763;50.464;30.612;2024-02-04T00:58:44;98930.12;;;7.04;100.00
58979;BME280;44763;50.464;30.612;2024-02-04T01:00:47;98934.44;;;7.03;100.00
58979;BME280;44763;50.464;30.612;2024-02-04T01:02:51;98928.52;;;7.01;100.00
58979;BME280;44763;50.464;30.612;2024-02-04T01:04:53;98932.19;;;6.97;100.00
58979;BME280;44763;50.464;30.612;2024-02-04T01:06:55;98924.67;;;6.92;100.00
58979;BME280;44763;50.464;30.612;2024-02-04T01:09:02;98924.82;;;6.87;100.00
58979;BME280;44763;50.464;30.612;2024-02-04T01:11:05;98922.44;;;6.84;100.00
58979;BME280;44763;50.464;30.612;2024-02-04T01:13:07;98924.64;;;6.83;100.00
58979;BME280;44763;50.464;30.612;2024-02-04T01:15:09;98919.22;;;6.85;100.00
58979;BME280;44763;50.464;30.612;2024-02-04T01:17:11;98919.64;;;6.87;100.00
58979;BME280;44763;50.464;30.612;2024-02-04T01:19:12;98918.49;;;6.89;100.00
58979;BME280;44763;50.464;30.612;2024-02-04T01:21:14;98922.08;;;6.87;100.00
58979;BME280;44763;50.464;30.612;2024-02-04T01:23:16;98925.09;;;6.87;100.00
58979;BME280;44763;50.464;30.612;2024-02-04T01:25:21;98928.04;;;6.86;100.00
58979;BME280;44763;50.464;30.612;2024-02-04T01:27:23;98927.27;;;6.86;100.00
58979;BME280;44763;50.464;30.612;2024-02-04T01:29:25;98928.23;;;6.86;100.00
58979;BME280;44763;50.464;30.612;2024-02-04T01:31:27;98928.93;;;6.87;100.00
58979;BME280;44763;50.464;30.612;2024-02-04T01:33:29;98925.92;;;6.89;100.00
58979;BME280;44763;50.464;30.612;2024-02-04T01:35:31;98927.56;;;6.91;100.00
58979;BME280;44763;50.464;30.612;2024-02-04T01:37:33;98926.06;;;6.94;100.00
58979;BME280;44763;50.464;30.612;2024-02-04T01:39:35;98929.95;;;6.99;100.00
58979;BME280;44763;50.464;30.612;2024-02-04T01:41:37;98929.98;;;7.00;100.00
58979;BME280;44763;50.464;30.612;2024-02-04T01:43:39;98932.11;;;6.98;100.00
58979;BME280;44763;50.464;30.612;2024-02-04T01:45:42;98929.20;;;6.94;100.00
58979;BME280;44763;50.464;30.612;2024-02-04T01:47:43;98931.75;;;6.89;100.00
58979;BME280;44763;50.464;30.612;2024-02-04T01:49:45;98930.11;;;6.85;100.00
58979;BME280;44763;50.464;30.612;2024-02-04T01:51:48;98934.61;;;6.83;100.00
58979;BME280;44763;50.464;30.612;2024-02-04T01:53:50;98931.48;;;6.81;100.00
58979;BME280;44763;50.464;30.612;2024-02-04T01:55:52;98936.77;;;6.78;100.00
58979;BME280;44763;50.464;30.612;2024-02-04T01:57:54;98934.77;;;6.76;100.00
58979;BME280;44763;50.464;30.612;2024-02-04T01:59:56;98931.30;;;6.78;100.00
58979;BME280;44763;50.464;30.612;2024-02-04T02:01:59;98936.70;;;6.80;100.00
58979;BME280;44763;50.464;30.612;2024-02-04T02:04:01;98932.09;;;6.80;100.00
58979;BME280;44763;50.464;30.612;2024-02-04T02:06:05;98937.52;;;6.82;100.00
58979;BME280;44763;50.464;30.612;2024-02-04T02:08:07;98934.55;;;6.85;100.00
58979;BME280;44763;50.464;30.612;2024-02-04T02:10:09;98939.36;;;6.86;100.00
58979;BME280;44763;50.464;30.612;2024-02-04T02:12:39;98940.68;;;6.90;100.00
58979;BME280;44763;50.464;30.612;2024-02-04T02:14:45;98943.73;;;6.89;100.00
58979;BME280;44763;50.464;30.612;2024-02-04T02:16:48;98944.83;;;6.86;100.00
58979;BME280;44763;50.464;30.612;2024-02-04T02:18:53;98946.85;;;6.84;100.00
58979;BME280;44763;50.464;30.612;2024-02-04T02:23:22;98942.29;;;6.80;100.00
58979;BME280;44763;50.464;30.612;2024-02-04T02:25:24;98945.25;;;6.78;100.00
58979;BME280;44763;50.464;30.612;2024-02-04T02:27:26;98939.96;;;6.83;100.00
58979;BME280;44763;50.464;30.612;2024-02-04T02:29:28;98939.58;;;6.91;100.00
58979;BME280;44763;50.464;30.612;2024-02-04T02:31:31;98934.51;;;6.98;100.00
58979;BME280;44763;50.464;30.612;2024-02-04T02:33:48;98942.04;;;6.96;100.00
58979;BME280;44763;50.464;30.612;2024-02-04T02:35:53;98947.05;;;6.92;100.00
58979;BME280;44763;50.464;30.612;2024-02-04T02:40:16;98950.26;;;6.92;100.00
58979;BME280;44763;50.464;30.612;2024-02-04T02:42:22;98955.27;;;6.91;100.00
58979;BME280;44763;50.464;30.612;2024-02-04T02:44:25;98953.67;;;6.90;100.00
58979;BME280;44763;50.464;30.612;2024-02-04T02:46:28;98956.02;;;6.88;100.00
58979;BME280;44763;50.464;30.612;2024-02-04T02:48:31;98950.05;;;6.82;100.00
58979;BME280;44763;50.464;30.612;2024-02-04T02:50:33;98954.50;;;6.81;100.00
58979;BME280;44763;50.464;30.612;2024-02-04T02:52:35;98954.94;;;6.78;100.00
58979;BME280;44763;50.464;30.612;2024-02-04T02:54:36;98957.73;;;6.81;100.00
58979;BME280;44763;50.464;30.612;2024-02-04T02:56:38;98957.67;;;6.87;100.00
58979;BME280;44763;50.464;30.612;2024-02-04T02:58:40;98955.15;;;6.89;100.00
58979;BME280;44763;50.464;30.612;2024-02-04T03:00:42;98952.73;;;6.89;100.00
58979;BME280;44763;50.464;30.612;2024-02-04T03:02:44;98954.00;;;6.88;100.00
58979;BME280;44763;50.464;30.612;2024-02-04T03:04:46;98951.95;;;6.87;100.00
58979;BME280;44763;50.464;30.612;2024-02-04T03:06:48;98947.23;;;6.87;100.00
58979;BME280;44763;50.464;30.612;2024-02-04T03:08:50;98942.87;;;6.86;100.00
58979;BME280;44763;50.464;30.612;2024-02-04T03:10:52;98938.67;;;6.86;100.00
58979;BME280;44763;50.464;30.612;2024-02-04T03:12:54;98935.08;;;6.83;100.00
58979;BME280;44763;50.464;30.612;2024-02-04T03:14:55;98936.80;;;6.79;100.00
58979;BME280;44763;50.464;30.612;2024-02-04T03:16:58;98935.99;;;6.79;100.00
58979;BME280;44763;50.464;30.612;2024-02-04T03:19:05;98934.94;;;6.79;100.00
58979;BME280;44763;50.464;30.612;2024-02-04T03:21:15;98936.95;;;6.80;100.00
58979;BME280;44763;50.464;30.612;2024-02-04T03:23:17;98934.73;;;6.80;100.00
58979;BME280;44763;50.464;30.612;2024-02-04T03:25:19;98939.55;;;6.80;100.00
58979;BME280;44763;50.464;30.612;2024-02-04T03:27:21;98942.92;;;6.79;100.00
58979;BME280;44763;50.464;30.612;2024-02-04T03:29:23;98947.23;;;6.75;100.00
58979;BME280;44763;50.464;30.612;2024-02-04T03:31:25;98947.41;;;6.71;100.00
58979;BME280;44763;50.464;30.612;2024-02-04T03:33:27;98948.50;;;6.70;100.00
58979;BME280;44763;50.464;30.612;2024-02-04T03:35:30;98954.39;;;6.67;100.00
58979;BME280;44763;50.464;30.612;2024-02-04T03:37:32;98950.83;;;6.62;100.00
58979;BME280;44763;50.464;30.612;2024-02-04T03:39:34;98954.23;;;6.58;100.00
58979;BME280;44763;50.464;30.612;2024-02-04T03:41:36;98957.03;;;6.54;100.00
58979;BME280;44763;50.464;30.612;2024-02-04T03:43:37;98951.86;;;6.49;100.00
58979;BME280;44763;50.464;30.612;2024-02-04T03:45:39;98950.94;;;6.42;100.00
58979;BME280;44763;50.464;30.612;2024-02-04T03:47:41;98959.05;;;6.37;100.00
58979;BME280;44763;50.464;30.612;2024-02-04T03:49:43;98951.38;;;6.33;100.00
58979;BME280;44763;50.464;30.612;2024-02-04T03:51:45;98950.45;;;6.35;100.00
58979;BME280;44763;50.464;30.612;2024-02-04T03:53:48;98953.71;;;6.41;100.00
58979;BME280;44763;50.464;30.612;2024-02-04T03:55:51;98952.17;;;6.45;100.00
58979;BME280;44763;50.464;30.612;2024-02-04T03:57:54;98951.83;;;6.44;100.00
58979;BME280;44763;50.464;30.612;2024-02-04T03:59:58;98951.13;;;6.39;100.00
58979;BME280;44763;50.464;30.612;2024-02-04T04:02:01;98953.40;;;6.39;100.00
58979;BME280;44763;50.464;30.612;2024-02-04T04:04:02;98952.76;;;6.39;100.00
58979;BME280;44763;50.464;30.612;2024-02-04T04:06:05;98955.17;;;6.38;100.00
58979;BME280;44763;50.464;30.612;2024-02-04T04:08:06;98961.94;;;6.37;100.00
58979;BME280;44763;50.464;30.612;2024-02-04T04:10:08;98966.14;;;6.38;100.00
58979;BME280;44763;50.464;30.612;2024-02-04T04:12:11;98970.37;;;6.36;100.00
58979;BME280;44763;50.464;30.612;2024-02-04T04:14:13;98978.83;;;6.35;100.00
58979;BME280;44763;50.464;30.612;2024-02-04T04:16:20;98984.73;;;6.33;100.00
58979;BME280;44763;50.464;30.612;2024-02-04T04:18:22;98980.42;;;6.31;100.00
58979;BME280;44763;50.464;30.612;2024-02-04T04:20:27;98981.28;;;6.30;100.00
58979;BME280;44763;50.464;30.612;2024-02-04T04:22:28;98984.42;;;6.31;100.00
58979;BME280;44763;50.464;30.612;2024-02-04T04:24:30;98982.23;;;6.37;100.00
58979;BME280;44763;50.464;30.612;2024-02-04T04:26:32;98982.42;;;6.44;100.00
58979;BME280;44763;50.464;30.612;2024-02-04T04:28:36;98985.33;;;6.47;100.00
58979;BME280;44763;50.464;30.612;2024-02-04T04:30:38;98988.75;;;6.45;100.00
58979;BME280;44763;50.464;30.612;2024-02-04T04:32:40;98991.71;;;6.45;100.00
58979;BME280;44763;50.464;30.612;2024-02-04T04:34:42;98988.49;;;6.45;100.00
58979;BME280;44763;50.464;30.612;2024-02-04T04:36:43;98991.62;;;6.43;100.00
58979;BME280;44763;50.464;30.612;2024-02-04T04:38:46;98991.53;;;6.36;100.00
58979;BME280;44763;50.464;30.612;2024-02-04T04:40:51;98994.84;;;6.30;100.00
58979;BME280;44763;50.464;30.612;2024-02-04T04:42:53;98993.79;;;6.26;100.00
58979;BME280;44763;50.464;30.612;2024-02-04T04:46:48;98988.85;;;6.07;100.00
58979;BME280;44763;50.464;30.612;2024-02-04T04:48:52;98984.48;;;6.06;100.00
58979;BME280;44763;50.464;30.612;2024-02-04T04:50:54;98988.16;;;6.07;100.00
58979;BME280;44763;50.464;30.612;2024-02-04T04:52:56;98986.10;;;6.14;100.00
58979;BME280;44763;50.464;30.612;2024-02-04T04:54:58;98987.50;;;6.24;100.00
58979;BME280;44763;50.464;30.612;2024-02-04T04:56:59;98984.34;;;6.31;100.00
58979;BME280;44763;50.464;30.612;2024-02-04T04:59:01;98989.65;;;6.33;100.00
58979;BME280;44763;50.464;30.612;2024-02-04T05:01:04;98994.11;;;6.31;100.00
58979;BME280;44763;50.464;30.612;2024-02-04T05:03:06;98992.66;;;6.28;100.00
58979;BME280;44763;50.464;30.612;2024-02-04T05:05:08;99001.94;;;6.20;100.00
58979;BME280;44763;50.464;30.612;2024-02-04T05:07:10;99003.26;;;6.13;100.00
58979;BME280;44763;50.464;30.612;2024-02-04T05:09:12;98999.48;;;6.09;100.00
58979;BME280;44763;50.464;30.612;2024-02-04T05:11:14;98994.89;;;6.07;100.00
58979;BME280;44763;50.464;30.612;2024-02-04T05:13:16;98995.30;;;6.05;100.00
58979;BME280;44763;50.464;30.612;2024-02-04T05:15:18;98994.08;;;6.03;100.00
58979;BME280;44763;50.464;30.612;2024-02-04T05:17:20;98992.44;;;6.01;100.00
58979;BME280;44763;50.464;30.612;2024-02-04T05:19:22;98989.58;;;6.06;100.00
58979;BME280;44763;50.464;30.612;2024-02-04T05:21:24;98993.59;;;6.15;100.00
58979;BME280;44763;50.464;30.612;2024-02-04T05:23:26;98993.97;;;6.22;100.00
58979;BME280;44763;50.464;30.612;2024-02-04T05:25:29;99000.45;;;6.24;100.00
58979;BME280;44763;50.464;30.612;2024-02-04T05:27:31;98998.94;;;6.23;100.00
58979;BME280;44763;50.464;30.612;2024-02-04T05:29:32;98999.00;;;6.20;100.00
58979;BME280;44763;50.464;30.612;2024-02-04T05:31:40;98999.12;;;6.20;100.00
58979;BME280;44763;50.464;30.612;2024-02-04T05:33:43;99000.88;;;6.19;100.00
58979;BME280;44763;50.464;30.612;2024-02-04T05:35:45;98999.67;;;6.17;100.00
58979;BME280;44763;50.464;30.612;2024-02-04T05:37:46;99002.76;;;6.16;100.00
58979;BME280;44763;50.464;30.612;2024-02-04T05:39:48;99006.27;;;6.12;100.00
58979;BME280;44763;50.464;30.612;2024-02-04T05:41:50;99003.63;;;6.08;100.00
58979;BME280;44763;50.464;30.612;2024-02-04T05:43:53;99006.50;;;6.06;100.00
58979;BME280;44763;50.464;30.612;2024-02-04T05:45:55;99002.27;;;6.04;100.00
58979;BME280;44763;50.464;30.612;2024-02-04T05:47:57;99002.02;;;6.06;100.00
58979;BME280;44763;50.464;30.612;2024-02-04T05:49:59;99002.70;;;6.15;100.00
58979;BME280;44763;50.464;30.612;2024-02-04T05:52:02;99008.08;;;6.21;100.00
58979;BME280;44763;50.464;30.612;2024-02-04T05:54:04;99004.27;;;6.23;100.00
58979;BME280;44763;50.464;30.612;2024-02-04T05:56:06;99003.33;;;6.23;100.00
58979;BME280;44763;50.464;30.612;2024-02-04T05:58:07;99004.39;;;6.21;100.00
58979;BME280;44763;50.464;30.612;2024-02-04T06:00:10;99002.41;;;6.19;100.00
58979;BME280;44763;50.464;30.612;2024-02-04T06:02:11;99003.09;;;6.17;100.00
58979;BME280;44763;50.464;30.612;2024-02-04T06:04:14;99004.98;;;6.18;100.00
58979;BME280;44763;50.464;30.612;2024-02-04T06:06:17;99008.15;;;6.18;100.00
58979;BME280;44763;50.464;30.612;2024-02-04T06:08:21;99010.55;;;6.17;100.00
58979;BME280;44763;50.464;30.612;2024-02-04T06:10:23;99007.30;;;6.15;100.00
58979;BME280;44763;50.464;30.612;2024-02-04T06:12:25;99009.89;;;6.13;100.00
58979;BME280;44763;50.464;30.612;2024-02-04T06:14:27;99010.88;;;6.17;100.00
58979;BME280;44763;50.464;30.612;2024-02-04T06:16:29;99007.31;;;6.28;100.00
58979;BME280;44763;50.464;30.612;2024-02-04T06:18:31;99012.77;;;6.34;100.00
58979;BME280;44763;50.464;30.612;2024-02-04T06:20:33;99009.16;;;6.35;100.00
58979;BME280;44763;50.464;30.612;2024-02-04T06:22:35;99012.06;;;6.32;100.00
58979;BME280;44763;50.464;30.612;2024-02-04T06:24:38;99011.30;;;6.28;100.00
58979;BME280;44763;50.464;30.612;2024-02-04T06:26:44;99014.05;;;6.24;100.00
58979;BME280;44763;50.464;30.612;2024-02-04T06:28:45;99013.05;;;6.20;100.00
58979;BME280;44763;50.464;30.612;2024-02-04T06:30:51;99012.89;;;6.15;100.00
58979;BME280;44763;50.464;30.612;2024-02-04T06:32:53;99017.95;;;6.13;100.00
58979;BME280;44763;50.464;30.612;2024-02-04T06:34:56;99012.33;;;6.12;100.00
58979;BME280;44763;50.464;30.612;2024-02-04T06:37:00;99008.30;;;6.11;100.00
58979;BME280;44763;50.464;30.612;2024-02-04T06:39:02;99006.89;;;6.14;100.00
58979;BME280;44763;50.464;30.612;2024-02-04T06:41:04;99005.83;;;6.13;100.00
58979;BME280;44763;50.464;30.612;2024-02-04T06:43:06;99006.42;;;6.16;100.00
58979;BME280;44763;50.464;30.612;2024-02-04T06:45:08;99000.94;;;6.23;100.00
58979;BME280;44763;50.464;30.612;2024-02-04T06:47:11;99005.17;;;6.29;100.00
58979;BME280;44763;50.464;30.612;2024-02-04T06:49:15;99000.49;;;6.29;100.00
58979;BME280;44763;50.464;30.612;2024-02-04T06:51:20;99004.41;;;6.25;100.00
58979;BME280;44763;50.464;30.612;2024-02-04T06:53:22;99003.71;;;6.24;100.00
58979;BME280;44763;50.464;30.612;2024-02-04T06:55:24;99004.30;;;6.22;100.00
58979;BME280;44763;50.464;30.612;2024-02-04T06:57:26;99006.10;;;6.22;100.00
58979;BME280;44763;50.464;30.612;2024-02-04T06:59:28;99007.99;;;6.20;100.00
58979;BME280;44763;50.464;30.612;2024-02-04T07:01:30;99009.97;;;6.18;100.00
58979;BME280;44763;50.464;30.612;2024-02-04T07:03:33;99011.08;;;6.14;100.00
58979;BME280;44763;50.464;30.612;2024-02-04T07:05:37;99013.73;;;6.13;100.00
58979;BME280;44763;50.464;30.612;2024-02-04T07:07:39;99016.01;;;6.13;100.00
58979;BME280;44763;50.464;30.612;2024-02-04T07:09:41;99017.92;;;6.13;100.00
58979;BME280;44763;50.464;30.612;2024-02-04T07:11:43;99013.85;;;6.19;100.00
58979;BME280;44763;50.464;30.612;2024-02-04T07:13:45;99019.33;;;6.29;100.00
58979;BME280;44763;50.464;30.612;2024-02-04T07:15:47;99014.81;;;6.35;100.00
58979;BME280;44763;50.464;30.612;2024-02-04T07:17:49;99019.25;;;6.35;100.00
58979;BME280;44763;50.464;30.612;2024-02-04T07:19:51;99015.61;;;6.30;100.00
58979;BME280;44763;50.464;30.612;2024-02-04T07:21:53;99023.19;;;6.26;100.00
58979;BME280;44763;50.464;30.612;2024-02-04T07:23:55;99025.38;;;6.20;100.00
58979;BME280;44763;50.464;30.612;2024-02-04T07:25:57;99022.77;;;6.14;100.00
58979;BME280;44763;50.464;30.612;2024-02-04T07:27:58;99024.63;;;6.09;100.00
58979;BME280;44763;50.464;30.612;2024-02-04T07:30:00;99020.20;;;6.04;100.00
58979;BME280;44763;50.464;30.612;2024-02-04T07:32:03;99022.10;;;6.02;100.00
58979;BME280;44763;50.464;30.612;2024-02-04T07:34:05;99024.41;;;6.06;100.00
58979;BME280;44763;50.464;30.612;2024-02-04T07:36:08;99025.95;;;6.15;100.00
58979;BME280;44763;50.464;30.612;2024-02-04T07:38:10;99022.89;;;6.19;100.00
58979;BME280;44763;50.464;30.612;2024-02-04T07:40:11;99025.20;;;6.18;100.00
58979;BME280;44763;50.464;30.612;2024-02-04T07:42:13;99025.86;;;6.19;100.00
58979;BME280;44763;50.464;30.612;2024-02-04T07:44:15;99027.73;;;6.23;100.00
58979;BME280;44763;50.464;30.612;2024-02-04T07:46:17;99026.64;;;6.25;100.00
58979;BME280;44763;50.464;30.612;2024-02-04T07:48:20;99024.97;;;6.26;100.00
58979;BME280;44763;50.464;30.612;2024-02-04T07:50:21;99029.50;;;6.27;100.00
58979;BME280;44763;50.464;30.612;2024-02-04T07:52:24;99026.90;;;6.28;100.00
58979;BME280;44763;50.464;30.612;2024-02-04T07:54:26;99023.86;;;6.33;100.00
58979;BME280;44763;50.464;30.612;2024-02-04T07:56:29;99032.23;;;6.42;100.00
58979;BME280;44763;50.464;30.612;2024-02-04T07:58:30;99032.03;;;6.52;100.00
58979;BME280;44763;50.464;30.612;2024-02-04T08:00:32;99036.27;;;6.57;100.00
58979;BME280;44763;50.464;30.612;2024-02-04T08:02:34;99035.30;;;6.59;100.00
58979;BME280;44763;50.464;30.612;2024-02-04T08:04:40;99030.52;;;6.59;100.00
58979;BME280;44763;50.464;30.612;2024-02-04T08:06:43;99033.42;;;6.58;100.00
58979;BME280;44763;50.464;30.612;2024-02-04T08:08:45;99039.14;;;6.61;100.00
58979;BME280;44763;50.464;30.612;2024-02-04T08:10:52;99033.39;;;6.61;100.00
58979;BME280;44763;50.464;30.612;2024-02-04T08:12:54;99040.04;;;6.62;100.00
58979;BME280;44763;50.464;30.612;2024-02-04T08:14:56;99038.95;;;6.62;100.00
58979;BME280;44763;50.464;30.612;2024-02-04T08:16:58;99035.83;;;6.60;100.00
58979;BME280;44763;50.464;30.612;2024-02-04T08:19:03;99031.89;;;6.62;100.00
58979;BME280;44763;50.464;30.612;2024-02-04T08:21:08;99027.10;;;6.64;100.00
58979;BME280;44763;50.464;30.612;2024-02-04T08:23:10;99036.34;;;6.63;100.00
58979;BME280;44763;50.464;30.612;2024-02-04T08:25:12;99042.79;;;6.58;100.00
58979;BME280;44763;50.464;30.612;2024-02-04T08:27:14;99046.80;;;6.50;100.00
58979;BME280;44763;50.464;30.612;2024-02-04T08:29:18;99040.56;;;6.42;100.00
58979;BME280;44763;50.464;30.612;2024-02-04T08:31:20;99040.04;;;6.37;100.00
58979;BME280;44763;50.464;30.612;2024-02-04T08:33:25;99038.38;;;6.32;100.00
58979;BME280;44763;50.464;30.612;2024-02-04T08:35:27;99036.34;;;6.27;100.00
58979;BME280;44763;50.464;30.612;2024-02-04T08:37:28;99036.60;;;6.29;100.00
58979;BME280;44763;50.464;30.612;2024-02-04T08:39:30;99034.17;;;6.37;100.00
58979;BME280;44763;50.464;30.612;2024-02-04T08:41:32;99028.30;;;6.43;100.00
58979;BME280;44763;50.464;30.612;2024-02-04T08:43:34;99031.04;;;6.44;100.00
58979;BME280;44763;50.464;30.612;2024-02-04T08:45:36;99034.38;;;6.42;100.00
58979;BME280;44763;50.464;30.612;2024-02-04T08:47:38;99033.81;;;6.44;100.00
58979;BME280;44763;50.464;30.612;2024-02-04T08:49:41;99033.66;;;6.47;100.00
58979;BME280;44763;50.464;30.612;2024-02-04T08:51:43;99035.08;;;6.51;100.00
58979;BME280;44763;50.464;30.612;2024-02-04T08:53:45;99036.98;;;6.55;100.00
58979;BME280;44763;50.464;30.612;2024-02-04T08:55:47;99031.55;;;6.58;100.00
58979;BME280;44763;50.464;30.612;2024-02-04T08:57:51;99031.98;;;6.58;100.00
58979;BME280;44763;50.464;30.612;2024-02-04T08:59:56;99032.23;;;6.64;100.00
58979;BME280;44763;50.464;30.612;2024-02-04T09:01:58;99022.63;;;6.68;100.00
58979;BME280;44763;50.464;30.612;2024-02-04T09:04:00;99025.73;;;6.68;100.00
58979;BME280;44763;50.464;30.612;2024-02-04T09:06:07;99011.87;;;6.65;100.00
58979;BME280;44763;50.464;30.612;2024-02-04T09:08:09;99016.60;;;6.60;100.00
58979;BME280;44763;50.464;30.612;2024-02-04T09:10:12;99013.08;;;6.55;100.00
58979;BME280;44763;50.464;30.612;2024-02-04T09:12:14;99012.70;;;6.55;100.00
58979;BME280;44763;50.464;30.612;2024-02-04T09:14:17;99010.25;;;6.60;100.00
58979;BME280;44763;50.464;30.612;2024-02-04T09:16:19;99009.25;;;6.71;100.00
58979;BME280;44763;50.464;30.612;2024-02-04T09:18:21;99007.20;;;6.86;100.00
58979;BME280;44763;50.464;30.612;2024-02-04T09:20:23;99000.84;;;7.06;100.00
58979;BME280;44763;50.464;30.612;2024-02-04T09:22:25;99008.29;;;7.24;100.00
58979;BME280;44763;50.464;30.612;2024-02-04T09:24:29;99005.14;;;7.32;100.00
58979;BME280;44763;50.464;30.612;2024-02-04T09:26:31;98996.11;;;7.32;100.00
58979;BME280;44763;50.464;30.612;2024-02-04T09:28:33;99005.39;;;7.33;100.00
58979;BME280;44763;50.464;30.612;2024-02-04T09:30:35;99010.68;;;7.31;100.00
58979;BME280;44763;50.464;30.612;2024-02-04T09:32:38;99010.79;;;7.28;100.00
58979;BME280;44763;50.464;30.612;2024-02-04T09:34:41;99010.58;;;7.28;100.00
58979;BME280;44763;50.464;30.612;2024-02-04T09:36:44;99010.87;;;7.27;100.00
58979;BME280;44763;50.464;30.612;2024-02-04T09:38:46;99004.16;;;7.23;100.00
58979;BME280;44763;50.464;30.612;2024-02-04T09:40:48;99000.08;;;7.09;100.00
58979;BME280;44763;50.464;30.612;2024-02-04T09:42:50;98999.67;;;6.95;100.00
58979;BME280;44763;50.464;30.612;2024-02-04T09:44:54;99005.23;;;6.84;100.00
58979;BME280;44763;50.464;30.612;2024-02-04T09:46:55;99005.09;;;6.86;100.00
58979;BME280;44763;50.464;30.612;2024-02-04T09:49:00;99006.22;;;6.93;100.00
58979;BME280;44763;50.464;30.612;2024-02-04T09:51:06;99005.39;;;6.98;100.00
58979;BME280;44763;50.464;30.612;2024-02-04T09:53:09;99002.42;;;6.99;100.00
58979;BME280;44763;50.464;30.612;2024-02-04T09:55:12;98998.39;;;7.02;100.00
58979;BME280;44763;50.464;30.612;2024-02-04T09:57:17;98987.30;;;7.03;100.00
58979;BME280;44763;50.464;30.612;2024-02-04T09:59:19;98985.23;;;7.03;100.00
58979;BME280;44763;50.464;30.612;2024-02-04T10:01:21;98985.04;;;7.06;100.00
58979;BME280;44763;50.464;30.612;2024-02-04T10:03:24;98981.44;;;7.06;100.00
58979;BME280;44763;50.464;30.612;2024-02-04T10:05:26;98976.67;;;7.06;100.00
58979;BME280;44763;50.464;30.612;2024-02-04T10:07:29;98971.02;;;7.10;100.00
58979;BME280;44763;50.464;30.612;2024-02-04T10:09:32;98970.52;;;7.15;100.00
58979;BME280;44763;50.464;30.612;2024-02-04T10:11:34;98972.41;;;7.21;100.00
58979;BME280;44763;50.464;30.612;2024-02-04T10:13:44;98963.52;;;7.29;100.00
58979;BME280;44763;50.464;30.612;2024-02-04T10:15:48;98963.87;;;7.38;100.00
58979;BME280;44763;50.464;30.612;2024-02-04T10:17:50;98960.05;;;7.46;100.00
58979;BME280;44763;50.464;30.612;2024-02-04T10:19:52;98954.15;;;7.48;100.00
58979;BME280;44763;50.464;30.612;2024-02-04T10:22:01;98947.20;;;7.42;100.00
58979;BME280;44763;50.464;30.612;2024-02-04T10:24:06;98940.27;;;7.39;100.00
58979;BME280;44763;50.464;30.612;2024-02-04T10:26:09;98945.73;;;7.40;100.00
58979;BME280;44763;50.464;30.612;2024-02-04T10:28:11;98941.70;;;7.44;100.00
58979;BME280;44763;50.464;30.612;2024-02-04T10:30:13;98948.92;;;7.47;100.00
58979;BME280;44763;50.464;30.612;2024-02-04T10:32:22;98949.99;;;7.48;100.00
58979;BME280;44763;50.464;30.612;2024-02-04T10:34:26;98936.36;;;7.50;100.00
58979;BME280;44763;50.464;30.612;2024-02-04T10:36:30;98934.65;;;7.52;100.00
58979;BME280;44763;50.464;30.612;2024-02-04T10:38:33;98922.29;;;7.52;100.00
58979;BME280;44763;50.464;30.612;2024-02-04T10:40:35;98925.43;;;7.51;100.00
58979;BME280;44763;50.464;30.612;2024-02-04T10:42:38;98930.33;;;7.48;100.00
58979;BME280;44763;50.464;30.612;2024-02-04T10:44:46;98932.37;;;7.49;100.00
58979;BME280;44763;50.464;30.612;2024-02-04T10:46:51;98930.00;;;7.50;100.00
58979;BME280;44763;50.464;30.612;2024-02-04T10:49:03;98933.80;;;7.50;100.00